createdAt,value
2022-10-02T00:00:01.903Z,99.49
2022-10-02T00:02:45.744Z,97.46
2022-10-02T00:05:41.361Z,97.21
2022-10-02T00:08:38.071Z,96.68
2022-10-02T00:11:28.413Z,97.11
2022-10-02T00:14:04.598Z,97.00
2022-10-02T00:16:43.724Z,96.20
2022-10-02T00:19:16.869Z,96.23
2022-10-02T00:21:51.448Z,96.24
2022-10-02T00:24:28.426Z,95.98
2022-10-02T00:27:32.119Z,94.49
2022-10-02T00:30:03.738Z,95.73
2022-10-02T00:32:38.050Z,94.62
2022-10-02T00:35:31.833Z,94.66
2022-10-02T00:38:12.982Z,94.29
2022-10-02T00:41:23.550Z,93.93
2022-10-02T00:44:14.036Z,93.91
2022-10-02T00:46:58.997Z,94.33
2022-10-02T00:50:09.379Z,93.18
2022-10-02T00:52:42.728Z,93.59
2022-10-02T00:55:21.770Z,92.90
2022-10-02T00:58:04.966Z,92.39
2022-10-02T01:00:34.146Z,92.82
2022-10-02T01:03:17.523Z,92.90
2022-10-02T01:05:47.626Z,92.47
2022-10-02T01:08:19.245Z,93.59
2022-10-02T01:10:49.373Z,92.66
2022-10-02T01:13:18.664Z,92.54
2022-10-02T01:15:54.692Z,93.23
2022-10-02T01:18:24.214Z,92.70
2022-10-02T01:20:59.681Z,92.68
2022-10-02T01:23:38.011Z,92.83
2022-10-02T01:26:08.983Z,92.51
2022-10-02T01:28:38.591Z,92.89
2022-10-02T01:31:11.726Z,93.08
2022-10-02T01:33:42.575Z,92.97
2022-10-02T01:36:14.027Z,92.55
2022-10-02T01:38:44.419Z,93.12
2022-10-02T01:41:16.108Z,92.39
2022-10-02T01:43:54.994Z,92.76
2022-10-02T01:46:43.805Z,92.28
2022-10-02T01:49:47.938Z,91.97
2022-10-02T01:53:03.052Z,91.16
2022-10-02T01:55:57.666Z,90.86
2022-10-02T01:58:51.122Z,91.49
2022-10-02T02:01:26.774Z,91.36
2022-10-02T02:04:20.905Z,91.65
2022-10-02T02:07:26.974Z,91.24
2022-10-02T02:10:18.921Z,90.98
2022-10-02T02:12:57.497Z,91.64
2022-10-02T02:15:47.586Z,91.15
2022-10-02T02:18:25.225Z,90.32
2022-10-02T02:21:00.130Z,90.55
2022-10-02T02:23:33.779Z,90.87
2022-10-02T02:26:09.651Z,91.12
2022-10-02T02:28:45.226Z,90.59
2022-10-02T02:31:20.359Z,90.98
2022-10-02T02:34:02.239Z,90.43
2022-10-02T02:36:38.137Z,90.24
2022-10-02T02:39:16.706Z,90.54
2022-10-02T02:41:51.309Z,90.52
2022-10-02T02:44:38.201Z,90.35
2022-10-02T02:47:14.292Z,89.70
2022-10-02T02:49:54.948Z,89.25
2022-10-02T02:52:31.558Z,88.40
2022-10-02T02:55:32.363Z,87.97
2022-10-02T02:58:20.515Z,88.01
2022-10-02T03:00:49.731Z,87.77
2022-10-02T03:03:19.002Z,87.82
2022-10-02T03:05:54.506Z,86.99
2022-10-02T03:08:33.316Z,86.72
2022-10-02T03:11:14.619Z,86.99
2022-10-02T03:14:02.538Z,86.90
2022-10-02T03:16:58.185Z,85.97
2022-10-02T03:19:52.059Z,84.75
2022-10-02T03:22:37.406Z,84.13
2022-10-02T03:25:15.702Z,84.21
2022-10-02T03:28:43.360Z,84.62
2022-10-02T03:31:14.395Z,83.96
2022-10-02T03:33:45.638Z,84.40
2022-10-02T03:36:19.090Z,84.31
2022-10-02T03:39:00.665Z,83.68
2022-10-02T03:41:35.963Z,84.03
2022-10-02T03:44:05.117Z,84.15
2022-10-02T03:46:34.441Z,83.96
2022-10-02T03:49:04.499Z,82.21
2022-10-02T03:51:33.546Z,81.93
2022-10-02T03:54:02.574Z,81.38
2022-10-02T03:56:53.043Z,81.11
2022-10-02T03:59:34.442Z,81.39
2022-10-02T04:02:08.121Z,81.07
2022-10-02T04:05:03.518Z,78.64
2022-10-02T04:07:41.422Z,79.76
2022-10-02T04:11:04.461Z,79.58
2022-10-02T04:13:52.039Z,78.62
2022-10-02T04:16:41.584Z,78.74
2022-10-02T04:19:19.980Z,78.87
2022-10-02T04:21:57.726Z,77.06
2022-10-02T04:24:45.998Z,75.32
2022-10-02T04:27:40.086Z,74.80
2022-10-02T04:30:16.121Z,74.64
2022-10-02T04:32:46.333Z,73.96
2022-10-02T04:35:27.898Z,73.00
2022-10-02T04:38:41.239Z,72.98
2022-10-02T04:41:20.582Z,71.61
2022-10-02T04:44:14.877Z,69.79
2022-10-02T04:46:56.905Z,68.58
2022-10-02T04:49:37.534Z,68.13
2022-10-02T04:52:25.260Z,68.67
2022-10-02T04:55:15.708Z,67.62
2022-10-02T04:57:58.037Z,66.74
2022-10-02T05:00:34.042Z,66.95
2022-10-02T05:03:23.705Z,65.89
2022-10-02T05:06:08.682Z,64.18
2022-10-02T05:08:40.824Z,63.44
2022-10-02T05:11:32.004Z,64.47
2022-10-02T05:14:12.672Z,62.36
2022-10-02T05:17:23.467Z,63.62
2022-10-02T05:20:40.769Z,60.77
2022-10-02T05:23:40.061Z,61.78
2022-10-02T05:26:29.608Z,61.33
2022-10-02T05:29:19.684Z,60.89
2022-10-02T05:31:56.759Z,60.69
2022-10-02T05:35:00.216Z,59.53
2022-10-02T05:37:50.314Z,58.50
2022-10-02T05:40:35.243Z,58.75
2022-10-02T05:43:13.661Z,58.63
2022-10-02T05:45:51.549Z,57.70
2022-10-02T05:48:23.316Z,59.80
2022-10-02T05:51:00.651Z,56.38
2022-10-02T05:53:37.996Z,56.69
2022-10-02T05:56:32.283Z,56.15
2022-10-02T05:59:30.488Z,55.58
2022-10-02T06:02:04.064Z,56.39
2022-10-02T06:04:41.060Z,53.97
2022-10-02T06:07:16.975Z,54.58
2022-10-02T06:10:02.136Z,55.01
2022-10-02T06:12:42.923Z,53.68
2022-10-02T06:15:28.066Z,54.94
2022-10-02T06:18:06.470Z,52.82
2022-10-02T06:20:47.864Z,50.21
2022-10-02T06:23:26.210Z,51.93
2022-10-02T06:26:11.654Z,50.19
2022-10-02T06:28:55.357Z,49.83
2022-10-02T06:31:42.145Z,51.10
2022-10-02T06:34:14.283Z,51.97
2022-10-02T06:36:49.154Z,49.61
2022-10-02T06:39:30.780Z,47.23
2022-10-02T06:42:25.518Z,47.30
2022-10-02T06:45:01.306Z,49.00
2022-10-02T06:47:39.762Z,49.53
2022-10-02T06:50:28.490Z,49.68
2022-10-02T06:53:08.244Z,45.42
2022-10-02T06:56:14.716Z,46.96
2022-10-02T06:58:49.276Z,45.18
2022-10-02T07:01:38.201Z,47.17
2022-10-02T07:04:35.572Z,47.10
2022-10-02T07:07:18.980Z,44.77
2022-10-02T07:09:53.731Z,43.97
2022-10-02T07:13:19.261Z,43.89
2022-10-02T07:16:08.874Z,40.83
2022-10-02T07:18:55.998Z,41.64
2022-10-02T07:21:37.581Z,43.09
2022-10-02T07:24:15.382Z,43.22
2022-10-02T07:27:13.767Z,41.87
2022-10-02T07:30:03.309Z,43.64
2022-10-02T07:32:48.905Z,43.88
2022-10-02T07:35:49.334Z,42.14
2022-10-02T07:38:44.258Z,40.62
2022-10-02T07:41:37.501Z,42.65
2022-10-02T07:44:21.919Z,42.44
2022-10-02T07:47:09.057Z,41.15
2022-10-02T07:50:06.150Z,38.83
2022-10-02T07:52:59.152Z,39.99
2022-10-02T07:55:28.994Z,39.40
2022-10-02T07:58:11.142Z,38.21
2022-10-02T08:01:04.580Z,39.48
2022-10-02T08:03:40.053Z,39.61
2022-10-02T08:06:09.990Z,38.62
2022-10-02T08:09:08.074Z,38.77
2022-10-02T08:11:49.359Z,39.15
2022-10-02T08:14:44.107Z,38.20
2022-10-02T08:17:23.004Z,40.93
2022-10-02T08:19:53.620Z,41.34
2022-10-02T08:22:39.379Z,40.03
2022-10-02T08:25:17.567Z,38.26
2022-10-02T08:28:10.197Z,37.79
2022-10-02T08:30:39.357Z,35.68
2022-10-02T08:33:20.999Z,33.87
2022-10-02T08:36:10.957Z,35.99
2022-10-02T08:39:17.914Z,32.04
2022-10-02T08:42:24.581Z,30.55
2022-10-02T08:45:36.757Z,32.25
2022-10-02T08:48:29.755Z,33.13
2022-10-02T08:51:35.617Z,33.55
2022-10-02T08:54:29.606Z,33.68
2022-10-02T08:57:13.595Z,35.00
2022-10-02T08:59:54.197Z,35.12
2022-10-02T09:02:40.922Z,35.25
2022-10-02T09:05:31.090Z,34.09
2022-10-02T09:08:15.147Z,35.00
2022-10-02T09:10:53.701Z,35.17
2022-10-02T09:13:50.605Z,36.36
2022-10-02T09:16:35.323Z,35.50
2022-10-02T09:19:43.052Z,36.31
2022-10-02T09:22:33.699Z,33.74
2022-10-02T09:25:38.520Z,34.79
2022-10-02T09:28:41.400Z,34.85
2022-10-02T09:31:31.326Z,35.59
2022-10-02T09:34:06.510Z,36.19
2022-10-02T09:37:12.078Z,33.40
2022-10-02T09:40:07.167Z,33.80
2022-10-02T09:43:03.219Z,33.73
2022-10-02T09:45:46.976Z,33.88
2022-10-02T09:48:46.451Z,34.69
2022-10-02T09:51:46.155Z,34.13
2022-10-02T09:54:33.354Z,34.76
2022-10-02T09:57:12.652Z,34.96
2022-10-02T10:00:18.214Z,36.18
2022-10-02T10:03:19.518Z,36.72
2022-10-02T10:06:20.451Z,37.14
2022-10-02T10:09:12.344Z,35.69
2022-10-02T10:11:48.968Z,35.55
2022-10-02T10:14:24.868Z,36.43
2022-10-02T10:17:57.014Z,36.00
2022-10-02T10:20:52.962Z,36.02
2022-10-02T10:23:52.195Z,35.13
2022-10-02T10:26:45.101Z,36.57
2022-10-02T10:29:23.009Z,35.95
2022-10-02T10:32:32.224Z,35.76
2022-10-02T10:35:21.175Z,35.14
2022-10-02T10:38:27.224Z,34.61
2022-10-02T10:41:14.603Z,34.70
2022-10-02T10:44:05.145Z,34.86
2022-10-02T10:46:57.333Z,35.58
2022-10-02T10:49:56.215Z,36.34
2022-10-02T10:52:56.044Z,34.35
2022-10-02T10:55:53.830Z,35.21
2022-10-02T10:58:35.858Z,36.13
2022-10-02T11:01:43.912Z,36.53
2022-10-02T11:04:44.802Z,36.73
2022-10-02T11:07:47.314Z,37.64
2022-10-02T11:10:48.053Z,36.43
2022-10-02T11:13:35.457Z,38.38
2022-10-02T11:16:23.777Z,38.44
2022-10-02T11:19:02.693Z,38.01
2022-10-02T11:21:46.176Z,39.37
2022-10-02T11:24:28.288Z,38.29
2022-10-02T11:27:15.480Z,38.99
2022-10-02T11:29:49.838Z,39.87
2022-10-02T11:32:55.606Z,39.71
2022-10-02T11:36:03.147Z,38.74
2022-10-02T11:38:51.202Z,37.55
2022-10-02T11:41:48.526Z,38.87
2022-10-02T11:44:36.367Z,36.98
2022-10-02T11:47:34.757Z,37.60
2022-10-02T11:50:30.239Z,38.42
2022-10-02T11:53:20.920Z,38.50
2022-10-02T11:56:12.757Z,39.27
2022-10-02T11:59:02.222Z,40.41
2022-10-02T12:01:34.242Z,38.48
2022-10-02T12:04:19.783Z,39.75
2022-10-02T12:07:12.200Z,40.37
2022-10-02T12:09:55.694Z,39.11
2022-10-02T12:12:58.329Z,40.01
2022-10-02T12:15:45.385Z,40.64
2022-10-02T12:18:45.271Z,41.01
2022-10-02T12:21:41.135Z,40.35
2022-10-02T12:25:16.630Z,40.73
2022-10-02T12:28:16.360Z,40.64
2022-10-02T12:31:13.226Z,40.63
2022-10-02T12:34:28.872Z,40.95
2022-10-02T12:37:08.210Z,41.79
2022-10-02T12:39:46.212Z,42.17
2022-10-02T12:42:43.876Z,43.23
2022-10-02T12:45:33.802Z,43.41
2022-10-02T12:48:34.359Z,43.98
2022-10-02T12:51:34.788Z,44.36
2022-10-02T12:54:19.649Z,44.51
2022-10-02T12:57:39.524Z,44.31
2022-10-02T13:00:17.416Z,45.20
2022-10-02T13:03:06.552Z,45.03
2022-10-02T13:05:52.694Z,45.04
2022-10-02T13:08:43.644Z,44.49
2022-10-02T13:11:28.895Z,45.05
2022-10-02T13:14:17.812Z,44.76
2022-10-02T13:16:50.127Z,45.24
2022-10-02T13:19:50.816Z,45.93
2022-10-02T13:22:41.648Z,45.88
2022-10-02T13:25:26.541Z,46.73
2022-10-02T13:28:08.687Z,47.40
2022-10-02T13:30:50.706Z,47.78
2022-10-02T13:34:14.103Z,48.14
2022-10-02T13:37:14.651Z,48.32
2022-10-02T13:40:03.133Z,50.07
2022-10-02T13:43:04.513Z,49.73
2022-10-02T13:45:54.760Z,50.58
2022-10-02T13:48:34.400Z,51.13
2022-10-02T13:51:33.139Z,51.91
2022-10-02T13:54:18.142Z,51.56
2022-10-02T13:57:11.822Z,52.51
2022-10-02T14:00:24.982Z,52.37
2022-10-02T14:03:08.282Z,52.77
2022-10-02T14:05:58.239Z,53.79
2022-10-02T14:08:41.020Z,54.08
2022-10-02T14:11:35.865Z,53.30
2022-10-02T14:14:32.486Z,54.29
2022-10-02T14:17:16.602Z,54.64
2022-10-02T14:20:20.034Z,53.79
2022-10-02T14:23:04.293Z,54.98
2022-10-02T14:26:17.853Z,55.46
2022-10-02T14:29:50.200Z,55.00
2022-10-02T14:32:30.669Z,56.93
2022-10-02T14:35:20.907Z,56.70
2022-10-02T14:38:09.111Z,57.10
2022-10-02T14:40:58.494Z,56.81
2022-10-02T14:43:47.204Z,57.21
2022-10-02T14:47:03.260Z,56.13
2022-10-02T14:50:02.829Z,56.97
2022-10-02T14:53:01.617Z,58.76
2022-10-02T14:55:39.645Z,60.97
2022-10-02T14:58:46.914Z,62.23
2022-10-02T15:01:24.269Z,60.22
2022-10-02T15:04:14.910Z,61.20
2022-10-02T15:07:16.488Z,59.89
2022-10-02T15:10:03.742Z,60.65
2022-10-02T15:13:17.769Z,61.25
2022-10-02T15:16:17.729Z,61.26
2022-10-02T15:18:56.911Z,61.71
2022-10-02T15:21:48.680Z,61.80
2022-10-02T15:24:44.636Z,62.02
2022-10-02T15:27:40.236Z,61.78
2022-10-02T15:30:21.905Z,61.26
2022-10-02T15:32:57.945Z,60.58
2022-10-02T15:35:32.655Z,60.23
2022-10-02T15:38:30.587Z,60.60
2022-10-02T15:41:14.315Z,60.44
2022-10-02T15:44:26.479Z,60.36
2022-10-02T15:47:36.833Z,61.50
2022-10-02T15:50:50.118Z,60.32
2022-10-02T15:53:57.426Z,62.02
2022-10-02T15:56:52.753Z,62.85
2022-10-02T15:59:31.131Z,64.36
2022-10-02T16:02:32.388Z,66.17
2022-10-02T16:05:15.035Z,66.17
2022-10-02T16:08:10.071Z,64.06
2022-10-02T16:10:56.105Z,64.76
2022-10-02T16:13:43.598Z,64.87
2022-10-02T16:16:21.180Z,65.74
2022-10-02T16:19:10.176Z,65.42
2022-10-02T16:22:17.805Z,66.02
2022-10-02T16:24:53.567Z,65.83
2022-10-02T16:27:33.668Z,64.98
2022-10-02T16:30:36.295Z,67.21
2022-10-02T16:33:15.880Z,68.58
2022-10-02T16:36:31.120Z,67.60
2022-10-02T16:39:20.391Z,68.13
2022-10-02T16:42:15.908Z,67.90
2022-10-02T16:45:14.063Z,66.70
2022-10-02T16:47:59.952Z,67.73
2022-10-02T16:51:07.984Z,68.13
2022-10-02T16:53:43.303Z,69.13
2022-10-02T16:56:35.985Z,69.04
2022-10-02T16:59:11.264Z,68.42
2022-10-02T17:02:13.089Z,68.74
2022-10-02T17:04:59.507Z,67.73
2022-10-02T17:07:44.434Z,66.29
2022-10-02T17:10:35.073Z,67.09
2022-10-02T17:13:15.520Z,66.58
2022-10-02T17:15:57.649Z,67.45
2022-10-02T17:18:47.096Z,68.33
2022-10-02T17:21:25.517Z,68.48
2022-10-02T17:23:59.880Z,69.19
2022-10-02T17:26:50.788Z,69.48
2022-10-02T17:29:43.553Z,70.69
2022-10-02T17:32:13.060Z,71.17
2022-10-02T17:34:51.811Z,71.72
2022-10-02T17:37:51.641Z,72.58
2022-10-02T17:40:29.445Z,72.50
2022-10-02T17:43:12.898Z,73.54
2022-10-02T17:46:04.250Z,72.18
2022-10-02T17:49:16.208Z,70.69
2022-10-02T17:51:59.238Z,69.33
2022-10-02T17:55:24.681Z,69.14
2022-10-02T17:58:20.800Z,69.33
2022-10-02T18:01:34.713Z,68.47
2022-10-02T18:04:33.282Z,68.45
2022-10-02T18:07:22.604Z,68.39
2022-10-02T18:10:04.651Z,68.62
2022-10-02T18:12:52.838Z,69.60
2022-10-02T18:15:30.899Z,69.64
2022-10-02T18:18:32.306Z,68.30
2022-10-02T18:21:49.783Z,68.53
2022-10-02T18:24:45.102Z,70.18
2022-10-02T18:27:45.083Z,69.71
2022-10-02T18:30:21.398Z,70.12
2022-10-02T18:33:03.307Z,69.82
2022-10-02T18:35:48.707Z,69.43
2022-10-02T18:38:27.433Z,70.53
2022-10-02T18:41:37.301Z,70.25
2022-10-02T18:44:44.467Z,72.50
2022-10-02T18:47:37.183Z,72.13
2022-10-02T18:50:24.400Z,72.72
2022-10-02T18:53:16.902Z,71.25
2022-10-02T18:55:49.483Z,72.42
2022-10-02T18:58:33.685Z,71.89
2022-10-02T19:01:14.607Z,73.00
2022-10-02T19:04:05.371Z,71.57
2022-10-02T19:06:54.721Z,72.46
2022-10-02T19:09:29.358Z,72.61
2022-10-02T19:12:13.551Z,72.88
2022-10-02T19:14:48.825Z,72.60
2022-10-02T19:17:25.616Z,72.53
2022-10-02T19:19:56.812Z,71.76
2022-10-02T19:22:39.529Z,72.22
2022-10-02T19:25:21.360Z,71.99
2022-10-02T19:27:58.364Z,71.98
2022-10-02T19:30:31.352Z,71.68
2022-10-02T19:33:10.358Z,72.11
2022-10-02T19:35:45.428Z,72.27
2022-10-02T19:38:34.023Z,71.35
2022-10-02T19:41:10.919Z,72.78
2022-10-02T19:43:58.875Z,72.65
2022-10-02T19:46:56.045Z,74.46
2022-10-02T19:49:31.421Z,73.96
2022-10-02T19:52:00.485Z,73.96
2022-10-02T19:54:38.894Z,75.48
2022-10-02T19:57:17.352Z,74.69
2022-10-02T19:59:53.311Z,75.06
2022-10-02T20:02:42.313Z,74.87
2022-10-02T20:05:22.513Z,74.32
2022-10-02T20:07:57.065Z,74.66
2022-10-02T20:11:01.141Z,73.35
2022-10-02T20:13:51.277Z,75.59
2022-10-02T20:16:44.555Z,75.37
2022-10-02T20:19:46.246Z,75.46
2022-10-02T20:22:18.815Z,75.48
2022-10-02T20:25:09.842Z,77.13
2022-10-02T20:27:39.049Z,76.26
2022-10-02T20:30:18.074Z,76.31
2022-10-02T20:32:53.808Z,77.57
2022-10-02T20:35:36.001Z,77.15
2022-10-02T20:38:12.239Z,76.24
2022-10-02T20:40:52.726Z,76.00
2022-10-02T20:43:33.815Z,75.84
2022-10-02T20:46:20.869Z,75.55
2022-10-02T20:49:09.433Z,74.85
2022-10-02T20:52:14.839Z,74.63
2022-10-02T20:54:55.277Z,74.61
2022-10-02T20:58:07.010Z,74.48
2022-10-02T21:01:13.880Z,74.04
2022-10-02T21:04:01.045Z,74.96
2022-10-02T21:06:54.864Z,74.90
2022-10-02T21:09:35.737Z,75.52
2022-10-02T21:12:20.108Z,75.83
2022-10-02T21:14:54.520Z,77.08
2022-10-02T21:17:47.965Z,78.98
2022-10-02T21:20:51.959Z,79.32
2022-10-02T21:23:33.355Z,78.60
2022-10-02T21:26:14.963Z,79.23
2022-10-02T21:28:47.160Z,80.50
2022-10-02T21:31:28.647Z,79.81
2022-10-02T21:34:10.311Z,79.23
2022-10-02T21:37:23.277Z,79.21
2022-10-02T21:40:30.070Z,78.91
2022-10-02T21:43:18.677Z,78.80
2022-10-02T21:46:09.369Z,79.21
2022-10-02T21:49:21.063Z,78.47
2022-10-02T21:52:12.487Z,78.22
2022-10-02T21:55:03.927Z,78.81
2022-10-02T21:57:43.631Z,77.68
2022-10-02T22:00:38.179Z,78.54
2022-10-02T22:03:11.432Z,79.38
2022-10-02T22:05:40.660Z,80.04
2022-10-02T22:08:22.195Z,79.12
2022-10-02T22:10:56.385Z,78.78
2022-10-02T22:13:38.286Z,78.97
2022-10-02T22:16:35.574Z,78.14
2022-10-02T22:19:27.607Z,78.67
2022-10-02T22:22:14.812Z,79.47
2022-10-02T22:25:05.419Z,79.41
2022-10-02T22:27:40.606Z,79.36
2022-10-02T22:30:23.926Z,79.57
2022-10-02T22:33:17.661Z,77.56
2022-10-02T22:35:56.603Z,77.31
2022-10-02T22:38:37.310Z,77.62
2022-10-02T22:41:34.193Z,77.73
2022-10-02T22:44:26.792Z,77.69
2022-10-02T22:47:13.251Z,76.83
2022-10-02T22:49:52.133Z,77.24
2022-10-02T22:52:30.401Z,76.91
2022-10-02T22:55:15.866Z,76.40
2022-10-02T22:57:59.790Z,75.63
2022-10-02T23:00:52.127Z,75.80
2022-10-02T23:03:47.560Z,75.32
2022-10-02T23:06:31.480Z,76.36
2022-10-02T23:09:00.494Z,75.70
2022-10-02T23:11:40.431Z,76.00
2022-10-02T23:14:21.723Z,75.62
2022-10-02T23:17:01.872Z,76.29
2022-10-02T23:19:43.741Z,76.10
2022-10-02T23:22:23.590Z,77.23
2022-10-02T23:25:01.402Z,77.87
2022-10-02T23:27:48.768Z,78.09
2022-10-02T23:30:23.189Z,78.74
2022-10-02T23:33:18.416Z,78.08
2022-10-02T23:36:02.003Z,77.28
2022-10-02T23:39:13.518Z,78.81
2022-10-02T23:41:56.383Z,78.68
2022-10-02T23:44:58.828Z,79.26
2022-10-02T23:47:45.971Z,78.75
2022-10-02T23:50:42.297Z,78.96
2022-10-02T23:53:38.976Z,79.88
2022-10-02T23:56:41.386Z,79.85
2022-10-02T23:59:27.868Z,80.32
